sensor_id;sensor_type;location;lat;lon;timestamp;P1;durP1;ratioP1;P2;durP2;ratioP2
70049;SDS011;57391;51.306;22.680;2023-09-08T00:02:25;10.60;;;6.50;;
70049;SDS011;57391;51.306;22.680;2023-09-08T00:04:53;12.20;;;6.20;;
70049;SDS011;57391;51.306;22.680;2023-09-08T00:07:20;10.80;;;6.30;;
70049;SDS011;57391;51.306;22.680;2023-09-08T00:09:47;12.90;;;6.10;;
70049;SDS011;57391;51.306;22.680;2023-09-08T00:12:14;10.80;;;6.20;;
70049;SDS011;57391;51.306;22.680;2023-09-08T00:14:41;10.10;;;6.30;;
70049;SDS011;57391;51.306;22.680;2023-09-08T00:17:08;11.10;;;6.50;;
70049;SDS011;57391;51.306;22.680;2023-09-08T00:19:35;11.70;;;6.90;;
70049;SDS011;57391;51.306;22.680;2023-09-08T00:22:03;10.90;;;6.60;;
70049;SDS011;57391;51.306;22.680;2023-09-08T00:24:32;11.30;;;6.70;;
70049;SDS011;57391;51.306;22.680;2023-09-08T00:26:59;10.20;;;6.20;;
70049;SDS011;57391;51.306;22.680;2023-09-08T00:29:26;12.80;;;6.30;;
70049;SDS011;57391;51.306;22.680;2023-09-08T00:31:53;8.60;;;5.90;;
70049;SDS011;57391;51.306;22.680;2023-09-08T00:34:20;11.10;;;6.70;;
70049;SDS011;57391;51.306;22.680;2023-09-08T00:36:46;10.10;;;6.40;;
70049;SDS011;57391;51.306;22.680;2023-09-08T00:39:14;10.60;;;6.40;;
70049;SDS011;57391;51.306;22.680;2023-09-08T00:41:40;10.20;;;6.40;;
70049;SDS011;57391;51.306;22.680;2023-09-08T00:44:07;12.00;;;6.50;;
70049;SDS011;57391;51.306;22.680;2023-09-08T00:46:35;10.60;;;6.90;;
70049;SDS011;57391;51.306;22.680;2023-09-08T00:49:02;11.60;;;6.80;;
70049;SDS011;57391;51.306;22.680;2023-09-08T00:51:30;11.40;;;6.60;;
70049;SDS011;57391;51.306;22.680;2023-09-08T00:53:57;10.50;;;6.80;;
70049;SDS011;57391;51.306;22.680;2023-09-08T00:56:24;9.90;;;6.40;;
70049;SDS011;57391;51.306;22.680;2023-09-08T00:58:51;11.10;;;6.30;;
70049;SDS011;57391;51.306;22.680;2023-09-08T01:01:18;13.90;;;6.80;;
70049;SDS011;57391;51.306;22.680;2023-09-08T01:03:46;9.80;;;6.30;;
70049;SDS011;57391;51.306;22.680;2023-09-08T01:06:13;12.60;;;6.30;;
70049;SDS011;57391;51.306;22.680;2023-09-08T01:08:40;10.30;;;6.30;;
70049;SDS011;57391;51.306;22.680;2023-09-08T01:11:07;10.70;;;6.90;;
70049;SDS011;57391;51.306;22.680;2023-09-08T01:13:34;13.70;;;6.90;;
70049;SDS011;57391;51.306;22.680;2023-09-08T01:16:01;10.20;;;6.10;;
70049;SDS011;57391;51.306;22.680;2023-09-08T01:18:28;9.20;;;5.80;;
70049;SDS011;57391;51.306;22.680;2023-09-08T01:21:05;11.20;;;6.60;;
70049;SDS011;57391;51.306;22.680;2023-09-08T01:24:11;10.70;;;6.40;;
70049;SDS011;57391;51.306;22.680;2023-09-08T01:26:55;9.90;;;6.40;;
70049;SDS011;57391;51.306;22.680;2023-09-08T01:29:22;9.80;;;6.10;;
70049;SDS011;57391;51.306;22.680;2023-09-08T01:31:51;10.30;;;6.20;;
70049;SDS011;57391;51.306;22.680;2023-09-08T01:34:18;11.60;;;6.40;;
70049;SDS011;57391;51.306;22.680;2023-09-08T01:36:46;10.30;;;6.30;;
70049;SDS011;57391;51.306;22.680;2023-09-08T01:39:12;10.00;;;6.20;;
70049;SDS011;57391;51.306;22.680;2023-09-08T01:41:39;10.80;;;6.20;;
70049;SDS011;57391;51.306;22.680;2023-09-08T01:44:06;9.80;;;6.30;;
70049;SDS011;57391;51.306;22.680;2023-09-08T01:46:36;9.10;;;5.80;;
70049;SDS011;57391;51.306;22.680;2023-09-08T01:49:03;12.60;;;6.20;;
70049;SDS011;57391;51.306;22.680;2023-09-08T01:51:30;9.70;;;6.00;;
70049;SDS011;57391;51.306;22.680;2023-09-08T01:53:57;12.60;;;6.30;;
70049;SDS011;57391;51.306;22.680;2023-09-08T01:56:23;12.20;;;6.40;;
70049;SDS011;57391;51.306;22.680;2023-09-08T01:58:50;11.80;;;6.20;;
70049;SDS011;57391;51.306;22.680;2023-09-08T02:01:17;9.50;;;6.30;;
70049;SDS011;57391;51.306;22.680;2023-09-08T02:03:44;9.00;;;5.90;;
70049;SDS011;57391;51.306;22.680;2023-09-08T02:06:11;10.70;;;6.00;;
70049;SDS011;57391;51.306;22.680;2023-09-08T02:08:38;12.00;;;6.60;;
70049;SDS011;57391;51.306;22.680;2023-09-08T02:11:06;10.20;;;6.20;;
70049;SDS011;57391;51.306;22.680;2023-09-08T02:13:33;10.20;;;6.20;;
70049;SDS011;57391;51.306;22.680;2023-09-08T02:16:00;9.80;;;6.20;;
70049;SDS011;57391;51.306;22.680;2023-09-08T02:18:26;10.40;;;6.10;;
70049;SDS011;57391;51.306;22.680;2023-09-08T02:20:54;10.80;;;6.10;;
70049;SDS011;57391;51.306;22.680;2023-09-08T02:23:21;9.90;;;6.00;;
70049;SDS011;57391;51.306;22.680;2023-09-08T02:25:48;10.50;;;6.30;;
70049;SDS011;57391;51.306;22.680;2023-09-08T02:28:15;10.60;;;6.40;;
70049;SDS011;57391;51.306;22.680;2023-09-08T02:30:42;11.20;;;6.00;;
70049;SDS011;57391;51.306;22.680;2023-09-08T02:33:09;9.80;;;6.40;;
70049;SDS011;57391;51.306;22.680;2023-09-08T02:35:39;10.50;;;6.30;;
70049;SDS011;57391;51.306;22.680;2023-09-08T02:38:06;10.20;;;6.20;;
70049;SDS011;57391;51.306;22.680;2023-09-08T02:40:33;10.00;;;6.60;;
70049;SDS011;57391;51.306;22.680;2023-09-08T02:43:01;9.40;;;5.90;;
70049;SDS011;57391;51.306;22.680;2023-09-08T02:45:29;10.80;;;6.30;;
70049;SDS011;57391;51.306;22.680;2023-09-08T02:47:56;11.70;;;6.50;;
70049;SDS011;57391;51.306;22.680;2023-09-08T02:50:23;10.10;;;5.50;;
70049;SDS011;57391;51.306;22.680;2023-09-08T02:52:50;10.20;;;5.90;;
70049;SDS011;57391;51.306;22.680;2023-09-08T02:55:17;9.40;;;6.00;;
70049;SDS011;57391;51.306;22.680;2023-09-08T02:57:44;10.60;;;6.30;;
70049;SDS011;57391;51.306;22.680;2023-09-08T03:00:11;10.60;;;6.40;;
70049;SDS011;57391;51.306;22.680;2023-09-08T03:02:38;9.90;;;6.30;;
70049;SDS011;57391;51.306;22.680;2023-09-08T03:05:06;11.50;;;6.20;;
70049;SDS011;57391;51.306;22.680;2023-09-08T03:07:34;10.30;;;6.20;;
70049;SDS011;57391;51.306;22.680;2023-09-08T03:10:04;10.70;;;6.10;;
70049;SDS011;57391;51.306;22.680;2023-09-08T03:12:32;10.30;;;6.00;;
70049;SDS011;57391;51.306;22.680;2023-09-08T03:14:59;10.60;;;6.00;;
70049;SDS011;57391;51.306;22.680;2023-09-08T03:17:27;10.00;;;5.70;;
70049;SDS011;57391;51.306;22.680;2023-09-08T03:19:54;11.20;;;6.30;;
70049;SDS011;57391;51.306;22.680;2023-09-08T03:22:21;9.90;;;6.10;;
70049;SDS011;57391;51.306;22.680;2023-09-08T03:24:47;11.20;;;5.90;;
70049;SDS011;57391;51.306;22.680;2023-09-08T03:27:15;10.00;;;6.00;;
70049;SDS011;57391;51.306;22.680;2023-09-08T03:29:42;10.80;;;6.50;;
70049;SDS011;57391;51.306;22.680;2023-09-08T03:32:09;15.40;;;6.20;;
70049;SDS011;57391;51.306;22.680;2023-09-08T03:34:36;12.00;;;6.40;;
70049;SDS011;57391;51.306;22.680;2023-09-08T03:37:06;9.90;;;5.90;;
70049;SDS011;57391;51.306;22.680;2023-09-08T03:39:33;11.60;;;6.00;;
70049;SDS011;57391;51.306;22.680;2023-09-08T03:42:02;10.50;;;5.90;;
70049;SDS011;57391;51.306;22.680;2023-09-08T03:44:29;11.00;;;6.40;;
70049;SDS011;57391;51.306;22.680;2023-09-08T03:46:56;11.20;;;6.30;;
70049;SDS011;57391;51.306;22.680;2023-09-08T03:49:22;11.20;;;6.40;;
70049;SDS011;57391;51.306;22.680;2023-09-08T03:51:50;12.60;;;6.30;;
70049;SDS011;57391;51.306;22.680;2023-09-08T03:54:17;11.90;;;6.00;;
70049;SDS011;57391;51.306;22.680;2023-09-08T03:56:44;9.60;;;6.20;;
70049;SDS011;57391;51.306;22.680;2023-09-08T03:59:11;11.20;;;6.00;;
70049;SDS011;57391;51.306;22.680;2023-09-08T04:01:38;9.90;;;6.00;;
70049;SDS011;57391;51.306;22.680;2023-09-08T04:04:04;10.40;;;6.70;;
70049;SDS011;57391;51.306;22.680;2023-09-08T04:06:31;9.70;;;6.20;;
70049;SDS011;57391;51.306;22.680;2023-09-08T04:08:58;11.60;;;6.40;;
70049;SDS011;57391;51.306;22.680;2023-09-08T04:11:25;11.00;;;6.40;;
70049;SDS011;57391;51.306;22.680;2023-09-08T04:13:52;12.50;;;6.30;;
70049;SDS011;57391;51.306;22.680;2023-09-08T04:16:19;11.40;;;6.40;;
70049;SDS011;57391;51.306;22.680;2023-09-08T04:18:46;10.50;;;6.60;;
70049;SDS011;57391;51.306;22.680;2023-09-08T04:21:13;13.30;;;6.50;;
70049;SDS011;57391;51.306;22.680;2023-09-08T04:23:40;13.10;;;6.80;;
70049;SDS011;57391;51.306;22.680;2023-09-08T04:26:07;10.40;;;6.30;;
70049;SDS011;57391;51.306;22.680;2023-09-08T04:28:34;12.20;;;6.60;;
70049;SDS011;57391;51.306;22.680;2023-09-08T04:31:00;11.20;;;6.40;;
70049;SDS011;57391;51.306;22.680;2023-09-08T04:33:27;14.30;;;6.50;;
70049;SDS011;57391;51.306;22.680;2023-09-08T04:35:55;13.10;;;6.60;;
70049;SDS011;57391;51.306;22.680;2023-09-08T04:38:22;11.50;;;6.60;;
70049;SDS011;57391;51.306;22.680;2023-09-08T04:40:49;11.00;;;6.80;;
70049;SDS011;57391;51.306;22.680;2023-09-08T04:43:16;11.20;;;6.30;;
70049;SDS011;57391;51.306;22.680;2023-09-08T04:45:43;10.00;;;6.30;;
70049;SDS011;57391;51.306;22.680;2023-09-08T04:48:10;13.00;;;6.80;;
70049;SDS011;57391;51.306;22.680;2023-09-08T04:50:37;10.50;;;6.20;;
70049;SDS011;57391;51.306;22.680;2023-09-08T04:53:04;11.80;;;6.50;;
70049;SDS011;57391;51.306;22.680;2023-09-08T04:55:31;13.40;;;6.50;;
70049;SDS011;57391;51.306;22.680;2023-09-08T04:57:58;11.90;;;6.70;;
70049;SDS011;57391;51.306;22.680;2023-09-08T05:00:25;10.70;;;6.40;;
70049;SDS011;57391;51.306;22.680;2023-09-08T05:02:52;14.50;;;7.30;;
70049;SDS011;57391;51.306;22.680;2023-09-08T05:05:19;12.90;;;7.60;;
70049;SDS011;57391;51.306;22.680;2023-09-08T05:07:46;12.20;;;7.00;;
70049;SDS011;57391;51.306;22.680;2023-09-08T05:10:14;14.10;;;7.20;;
70049;SDS011;57391;51.306;22.680;2023-09-08T05:12:41;13.50;;;8.10;;
70049;SDS011;57391;51.306;22.680;2023-09-08T05:15:08;13.80;;;7.10;;
70049;SDS011;57391;51.306;22.680;2023-09-08T05:17:42;15.20;;;7.40;;
70049;SDS011;57391;51.306;22.680;2023-09-08T05:20:09;11.80;;;7.20;;
70049;SDS011;57391;51.306;22.680;2023-09-08T05:22:36;13.60;;;7.10;;
70049;SDS011;57391;51.306;22.680;2023-09-08T05:25:04;12.20;;;7.70;;
70049;SDS011;57391;51.306;22.680;2023-09-08T05:27:31;14.40;;;8.00;;
70049;SDS011;57391;51.306;22.680;2023-09-08T05:29:58;12.70;;;8.10;;
70049;SDS011;57391;51.306;22.680;2023-09-08T05:32:25;11.80;;;7.60;;
70049;SDS011;57391;51.306;22.680;2023-09-08T05:34:52;12.10;;;7.70;;
70049;SDS011;57391;51.306;22.680;2023-09-08T05:37:19;13.40;;;8.00;;
70049;SDS011;57391;51.306;22.680;2023-09-08T05:39:46;12.80;;;7.90;;
70049;SDS011;57391;51.306;22.680;2023-09-08T05:42:13;13.30;;;7.60;;
70049;SDS011;57391;51.306;22.680;2023-09-08T05:44:39;13.90;;;7.20;;
70049;SDS011;57391;51.306;22.680;2023-09-08T05:47:06;13.00;;;7.60;;
70049;SDS011;57391;51.306;22.680;2023-09-08T05:49:33;13.70;;;7.80;;
70049;SDS011;57391;51.306;22.680;2023-09-08T05:52:00;14.30;;;8.40;;
70049;SDS011;57391;51.306;22.680;2023-09-08T05:54:29;16.00;;;8.60;;
70049;SDS011;57391;51.306;22.680;2023-09-08T05:56:56;14.00;;;7.60;;
70049;SDS011;57391;51.306;22.680;2023-09-08T05:59:23;13.20;;;8.10;;
70049;SDS011;57391;51.306;22.680;2023-09-08T06:01:50;13.00;;;8.20;;
70049;SDS011;57391;51.306;22.680;2023-09-08T06:04:17;15.50;;;7.90;;
70049;SDS011;57391;51.306;22.680;2023-09-08T06:06:45;12.90;;;7.30;;
70049;SDS011;57391;51.306;22.680;2023-09-08T06:09:11;17.20;;;8.40;;
70049;SDS011;57391;51.306;22.680;2023-09-08T06:11:40;14.60;;;8.50;;
70049;SDS011;57391;51.306;22.680;2023-09-08T06:14:07;13.90;;;8.30;;
70049;SDS011;57391;51.306;22.680;2023-09-08T06:16:37;16.30;;;8.80;;
70049;SDS011;57391;51.306;22.680;2023-09-08T06:19:04;13.70;;;8.70;;
70049;SDS011;57391;51.306;22.680;2023-09-08T06:21:31;15.20;;;8.00;;
70049;SDS011;57391;51.306;22.680;2023-09-08T06:23:59;14.30;;;8.70;;
70049;SDS011;57391;51.306;22.680;2023-09-08T06:26:26;14.50;;;8.70;;
70049;SDS011;57391;51.306;22.680;2023-09-08T06:28:53;13.60;;;8.60;;
70049;SDS011;57391;51.306;22.680;2023-09-08T06:31:20;16.60;;;9.20;;
70049;SDS011;57391;51.306;22.680;2023-09-08T06:33:47;14.50;;;8.30;;
70049;SDS011;57391;51.306;22.680;2023-09-08T06:36:16;14.90;;;8.70;;
70049;SDS011;57391;51.306;22.680;2023-09-08T06:38:43;15.10;;;8.80;;
70049;SDS011;57391;51.306;22.680;2023-09-08T06:41:11;14.00;;;8.80;;
70049;SDS011;57391;51.306;22.680;2023-09-08T06:43:38;15.10;;;8.50;;
70049;SDS011;57391;51.306;22.680;2023-09-08T06:46:10;15.30;;;7.80;;
70049;SDS011;57391;51.306;22.680;2023-09-08T06:48:37;16.30;;;8.80;;
70049;SDS011;57391;51.306;22.680;2023-09-08T06:51:04;16.70;;;8.80;;
70049;SDS011;57391;51.306;22.680;2023-09-08T06:53:31;15.10;;;9.10;;
70049;SDS011;57391;51.306;22.680;2023-09-08T06:55:58;15.70;;;8.60;;
70049;SDS011;57391;51.306;22.680;2023-09-08T06:58:25;14.80;;;8.90;;
70049;SDS011;57391;51.306;22.680;2023-09-08T07:00:53;14.70;;;8.60;;
70049;SDS011;57391;51.306;22.680;2023-09-08T07:03:21;14.70;;;8.50;;
70049;SDS011;57391;51.306;22.680;2023-09-08T07:05:53;15.00;;;9.50;;
70049;SDS011;57391;51.306;22.680;2023-09-08T07:08:21;14.90;;;8.20;;
70049;SDS011;57391;51.306;22.680;2023-09-08T07:10:52;13.90;;;8.60;;
70049;SDS011;57391;51.306;22.680;2023-09-08T07:13:20;15.70;;;8.90;;
70049;SDS011;57391;51.306;22.680;2023-09-08T07:15:47;15.10;;;8.40;;
70049;SDS011;57391;51.306;22.680;2023-09-08T07:18:14;16.50;;;8.60;;
70049;SDS011;57391;51.306;22.680;2023-09-08T07:20:41;16.50;;;9.00;;
70049;SDS011;57391;51.306;22.680;2023-09-08T07:23:08;15.30;;;8.60;;
70049;SDS011;57391;51.306;22.680;2023-09-08T07:25:35;15.10;;;8.80;;
70049;SDS011;57391;51.306;22.680;2023-09-08T07:28:03;14.00;;;8.20;;
70049;SDS011;57391;51.306;22.680;2023-09-08T07:30:31;14.10;;;8.20;;
70049;SDS011;57391;51.306;22.680;2023-09-08T07:32:59;16.40;;;8.60;;
70049;SDS011;57391;51.306;22.680;2023-09-08T07:35:26;16.60;;;8.70;;
70049;SDS011;57391;51.306;22.680;2023-09-08T07:37:53;16.70;;;8.50;;
70049;SDS011;57391;51.306;22.680;2023-09-08T07:40:20;16.50;;;8.60;;
70049;SDS011;57391;51.306;22.680;2023-09-08T07:42:47;15.80;;;8.60;;
70049;SDS011;57391;51.306;22.680;2023-09-08T07:45:14;14.70;;;8.10;;
70049;SDS011;57391;51.306;22.680;2023-09-08T07:47:41;12.80;;;7.90;;
70049;SDS011;57391;51.306;22.680;2023-09-08T07:50:24;15.00;;;7.80;;
70049;SDS011;57391;51.306;22.680;2023-09-08T07:52:54;13.50;;;7.50;;
70049;SDS011;57391;51.306;22.680;2023-09-08T07:55:22;13.20;;;8.10;;
70049;SDS011;57391;51.306;22.680;2023-09-08T07:57:51;15.30;;;8.10;;
70049;SDS011;57391;51.306;22.680;2023-09-08T08:00:18;12.10;;;7.60;;
70049;SDS011;57391;51.306;22.680;2023-09-08T08:02:47;12.50;;;7.80;;
70049;SDS011;57391;51.306;22.680;2023-09-08T08:05:16;13.50;;;8.20;;
70049;SDS011;57391;51.306;22.680;2023-09-08T08:07:43;15.80;;;8.10;;
70049;SDS011;57391;51.306;22.680;2023-09-08T08:10:11;13.30;;;8.20;;
70049;SDS011;57391;51.306;22.680;2023-09-08T08:12:40;11.90;;;7.20;;
70049;SDS011;57391;51.306;22.680;2023-09-08T08:15:09;12.50;;;7.10;;
70049;SDS011;57391;51.306;22.680;2023-09-08T08:17:38;11.90;;;6.90;;
70049;SDS011;57391;51.306;22.680;2023-09-08T08:20:07;12.10;;;6.60;;
70049;SDS011;57391;51.306;22.680;2023-09-08T08:22:37;13.20;;;6.90;;
70049;SDS011;57391;51.306;22.680;2023-09-08T08:25:04;13.20;;;7.60;;
70049;SDS011;57391;51.306;22.680;2023-09-08T08:27:31;10.10;;;5.90;;
70049;SDS011;57391;51.306;22.680;2023-09-08T08:29:59;9.50;;;5.30;;
70049;SDS011;57391;51.306;22.680;2023-09-08T08:32:27;8.40;;;5.00;;
70049;SDS011;57391;51.306;22.680;2023-09-08T08:34:54;10.00;;;5.20;;
70049;SDS011;57391;51.306;22.680;2023-09-08T08:37:22;8.40;;;4.50;;
70049;SDS011;57391;51.306;22.680;2023-09-08T08:39:49;6.70;;;4.10;;
70049;SDS011;57391;51.306;22.680;2023-09-08T08:42:16;7.50;;;4.00;;
70049;SDS011;57391;51.306;22.680;2023-09-08T08:44:43;8.20;;;4.00;;
70049;SDS011;57391;51.306;22.680;2023-09-08T08:47:13;6.90;;;4.30;;
70049;SDS011;57391;51.306;22.680;2023-09-08T08:49:43;7.60;;;4.60;;
70049;SDS011;57391;51.306;22.680;2023-09-08T08:52:15;8.30;;;4.90;;
70049;SDS011;57391;51.306;22.680;2023-09-08T08:54:44;10.10;;;5.20;;
70049;SDS011;57391;51.306;22.680;2023-09-08T08:57:14;9.30;;;5.30;;
70049;SDS011;57391;51.306;22.680;2023-09-08T08:59:41;9.90;;;5.10;;
70049;SDS011;57391;51.306;22.680;2023-09-08T09:02:11;9.10;;;4.60;;
70049;SDS011;57391;51.306;22.680;2023-09-08T09:04:38;9.10;;;5.10;;
70049;SDS011;57391;51.306;22.680;2023-09-08T09:07:07;10.00;;;5.30;;
70049;SDS011;57391;51.306;22.680;2023-09-08T09:09:34;9.20;;;5.20;;
70049;SDS011;57391;51.306;22.680;2023-09-08T09:12:01;10.80;;;5.20;;
70049;SDS011;57391;51.306;22.680;2023-09-08T09:14:33;9.60;;;5.00;;
70049;SDS011;57391;51.306;22.680;2023-09-08T09:17:00;8.10;;;5.00;;
70049;SDS011;57391;51.306;22.680;2023-09-08T09:19:30;7.50;;;4.40;;
70049;SDS011;57391;51.306;22.680;2023-09-08T09:22:00;9.20;;;4.90;;
70049;SDS011;57391;51.306;22.680;2023-09-08T09:24:38;7.90;;;5.20;;
70049;SDS011;57391;51.306;22.680;2023-09-08T09:27:10;9.50;;;5.10;;
70049;SDS011;57391;51.306;22.680;2023-09-08T09:29:50;9.80;;;5.00;;
70049;SDS011;57391;51.306;22.680;2023-09-08T09:32:23;8.10;;;5.20;;
70049;SDS011;57391;51.306;22.680;2023-09-08T09:34:53;8.20;;;4.50;;
70049;SDS011;57391;51.306;22.680;2023-09-08T09:37:20;8.20;;;4.80;;
70049;SDS011;57391;51.306;22.680;2023-09-08T09:39:51;9.30;;;4.90;;
70049;SDS011;57391;51.306;22.680;2023-09-08T09:42:21;9.20;;;4.50;;
70049;SDS011;57391;51.306;22.680;2023-09-08T09:44:49;8.20;;;4.70;;
70049;SDS011;57391;51.306;22.680;2023-09-08T09:47:18;8.20;;;4.60;;
70049;SDS011;57391;51.306;22.680;2023-09-08T09:49:47;7.50;;;4.10;;
70049;SDS011;57391;51.306;22.680;2023-09-08T09:52:21;6.60;;;4.10;;
70049;SDS011;57391;51.306;22.680;2023-09-08T09:54:50;6.70;;;4.20;;
70049;SDS011;57391;51.306;22.680;2023-09-08T09:57:19;10.10;;;3.90;;
70049;SDS011;57391;51.306;22.680;2023-09-08T09:59:48;7.80;;;4.30;;
70049;SDS011;57391;51.306;22.680;2023-09-08T10:02:18;7.40;;;3.90;;
70049;SDS011;57391;51.306;22.680;2023-09-08T10:04:48;8.80;;;4.40;;
70049;SDS011;57391;51.306;22.680;2023-09-08T10:07:17;6.80;;;3.90;;
70049;SDS011;57391;51.306;22.680;2023-09-08T10:09:44;8.00;;;4.30;;
70049;SDS011;57391;51.306;22.680;2023-09-08T10:12:14;6.20;;;3.90;;
70049;SDS011;57391;51.306;22.680;2023-09-08T10:14:42;8.60;;;3.90;;
70049;SDS011;57391;51.306;22.680;2023-09-08T10:17:15;9.60;;;4.00;;
70049;SDS011;57391;51.306;22.680;2023-09-08T10:19:46;5.30;;;3.30;;
70049;SDS011;57391;51.306;22.680;2023-09-08T10:22:20;6.00;;;3.70;;
70049;SDS011;57391;51.306;22.680;2023-09-08T10:24:54;6.60;;;3.70;;
70049;SDS011;57391;51.306;22.680;2023-09-08T10:27:24;8.30;;;3.80;;
70049;SDS011;57391;51.306;22.680;2023-09-08T10:29:51;7.10;;;3.60;;
70049;SDS011;57391;51.306;22.680;2023-09-08T10:32:20;6.60;;;3.60;;
70049;SDS011;57391;51.306;22.680;2023-09-08T10:34:49;5.80;;;3.40;;
70049;SDS011;57391;51.306;22.680;2023-09-08T10:39:47;5.40;;;3.20;;
70049;SDS011;57391;51.306;22.680;2023-09-08T10:47:25;6.90;;;3.30;;
70049;SDS011;57391;51.306;22.680;2023-09-08T10:49:56;5.10;;;3.30;;
70049;SDS011;57391;51.306;22.680;2023-09-08T10:52:25;5.10;;;3.00;;
70049;SDS011;57391;51.306;22.680;2023-09-08T10:54:53;5.40;;;2.90;;
70049;SDS011;57391;51.306;22.680;2023-09-08T10:57:23;8.70;;;4.60;;
70049;SDS011;57391;51.306;22.680;2023-09-08T10:59:55;8.00;;;3.20;;
70049;SDS011;57391;51.306;22.680;2023-09-08T11:02:42;5.20;;;3.20;;
70049;SDS011;57391;51.306;22.680;2023-09-08T11:05:15;6.50;;;3.40;;
70049;SDS011;57391;51.306;22.680;2023-09-08T11:07:43;5.40;;;3.20;;
70049;SDS011;57391;51.306;22.680;2023-09-08T11:10:12;6.20;;;3.40;;
70049;SDS011;57391;51.306;22.680;2023-09-08T11:12:39;5.00;;;3.00;;
70049;SDS011;57391;51.306;22.680;2023-09-08T11:15:07;7.20;;;3.10;;
70049;SDS011;57391;51.306;22.680;2023-09-08T11:17:36;5.40;;;3.00;;
70049;SDS011;57391;51.306;22.680;2023-09-08T11:20:08;4.40;;;3.00;;
70049;SDS011;57391;51.306;22.680;2023-09-08T11:22:38;5.00;;;3.20;;
70049;SDS011;57391;51.306;22.680;2023-09-08T11:25:09;6.40;;;3.40;;
70049;SDS011;57391;51.306;22.680;2023-09-08T11:27:39;7.10;;;3.30;;
70049;SDS011;57391;51.306;22.680;2023-09-08T11:30:07;7.00;;;3.30;;
70049;SDS011;57391;51.306;22.680;2023-09-08T11:32:35;5.20;;;2.90;;
70049;SDS011;57391;51.306;22.680;2023-09-08T11:35:07;5.60;;;3.30;;
70049;SDS011;57391;51.306;22.680;2023-09-08T11:37:37;5.90;;;3.10;;
70049;SDS011;57391;51.306;22.680;2023-09-08T11:40:07;5.80;;;3.20;;
70049;SDS011;57391;51.306;22.680;2023-09-08T11:42:43;6.00;;;3.20;;
70049;SDS011;57391;51.306;22.680;2023-09-08T11:47:42;5.50;;;3.10;;
70049;SDS011;57391;51.306;22.680;2023-09-08T11:50:10;8.40;;;5.50;;
70049;SDS011;57391;51.306;22.680;2023-09-08T11:52:44;8.50;;;4.80;;
70049;SDS011;57391;51.306;22.680;2023-09-08T11:55:12;5.80;;;3.40;;
70049;SDS011;57391;51.306;22.680;2023-09-08T11:57:41;4.90;;;3.10;;
70049;SDS011;57391;51.306;22.680;2023-09-08T12:00:10;5.00;;;3.20;;
70049;SDS011;57391;51.306;22.680;2023-09-08T12:02:43;7.80;;;3.30;;
70049;SDS011;57391;51.306;22.680;2023-09-08T12:05:12;6.60;;;3.30;;
70049;SDS011;57391;51.306;22.680;2023-09-08T12:07:40;5.00;;;3.10;;
70049;SDS011;57391;51.306;22.680;2023-09-08T12:10:10;8.20;;;3.00;;
70049;SDS011;57391;51.306;22.680;2023-09-08T12:12:45;6.80;;;3.20;;
70049;SDS011;57391;51.306;22.680;2023-09-08T12:15:32;6.00;;;3.50;;
70049;SDS011;57391;51.306;22.680;2023-09-08T12:18:13;4.90;;;3.10;;
70049;SDS011;57391;51.306;22.680;2023-09-08T12:20:44;6.30;;;3.10;;
70049;SDS011;57391;51.306;22.680;2023-09-08T12:23:21;4.90;;;3.20;;
70049;SDS011;57391;51.306;22.680;2023-09-08T12:25:51;6.00;;;3.40;;
70049;SDS011;57391;51.306;22.680;2023-09-08T12:28:20;6.80;;;3.10;;
70049;SDS011;57391;51.306;22.680;2023-09-08T12:30:50;5.00;;;3.00;;
70049;SDS011;57391;51.306;22.680;2023-09-08T12:33:17;5.60;;;3.40;;
70049;SDS011;57391;51.306;22.680;2023-09-08T12:35:47;5.90;;;3.20;;
70049;SDS011;57391;51.306;22.680;2023-09-08T12:38:19;5.10;;;3.30;;
70049;SDS011;57391;51.306;22.680;2023-09-08T12:40:46;5.80;;;3.20;;
70049;SDS011;57391;51.306;22.680;2023-09-08T12:43:13;5.40;;;3.10;;
70049;SDS011;57391;51.306;22.680;2023-09-08T12:45:40;5.00;;;3.00;;
70049;SDS011;57391;51.306;22.680;2023-09-08T12:48:06;5.50;;;3.10;;
70049;SDS011;57391;51.306;22.680;2023-09-08T12:50:33;6.70;;;3.20;;
70049;SDS011;57391;51.306;22.680;2023-09-08T12:53:00;7.10;;;3.40;;
70049;SDS011;57391;51.306;22.680;2023-09-08T12:55:27;4.90;;;3.30;;
70049;SDS011;57391;51.306;22.680;2023-09-08T12:57:54;6.40;;;3.10;;
70049;SDS011;57391;51.306;22.680;2023-09-08T13:00:22;5.80;;;3.10;;
70049;SDS011;57391;51.306;22.680;2023-09-08T13:02:49;7.10;;;3.30;;
70049;SDS011;57391;51.306;22.680;2023-09-08T13:05:16;6.70;;;2.90;;
70049;SDS011;57391;51.306;22.680;2023-09-08T13:07:44;6.80;;;3.30;;
70049;SDS011;57391;51.306;22.680;2023-09-08T13:10:10;5.70;;;3.30;;
70049;SDS011;57391;51.306;22.680;2023-09-08T13:12:37;5.30;;;3.40;;
70049;SDS011;57391;51.306;22.680;2023-09-08T13:15:05;5.10;;;3.20;;
70049;SDS011;57391;51.306;22.680;2023-09-08T13:17:32;6.20;;;3.00;;
70049;SDS011;57391;51.306;22.680;2023-09-08T13:19:59;6.30;;;3.20;;
70049;SDS011;57391;51.306;22.680;2023-09-08T13:22:26;8.50;;;3.30;;
70049;SDS011;57391;51.306;22.680;2023-09-08T13:24:54;9.70;;;3.20;;
70049;SDS011;57391;51.306;22.680;2023-09-08T13:27:21;6.20;;;3.10;;
70049;SDS011;57391;51.306;22.680;2023-09-08T13:29:48;6.90;;;3.20;;
70049;SDS011;57391;51.306;22.680;2023-09-08T13:32:15;5.60;;;3.20;;
70049;SDS011;57391;51.306;22.680;2023-09-08T13:34:43;5.80;;;3.10;;
70049;SDS011;57391;51.306;22.680;2023-09-08T13:37:10;5.30;;;3.10;;
70049;SDS011;57391;51.306;22.680;2023-09-08T13:39:37;6.00;;;3.10;;
70049;SDS011;57391;51.306;22.680;2023-09-08T13:42:04;5.10;;;3.00;;
70049;SDS011;57391;51.306;22.680;2023-09-08T13:44:31;5.40;;;2.90;;
70049;SDS011;57391;51.306;22.680;2023-09-08T13:46:57;5.60;;;2.90;;
70049;SDS011;57391;51.306;22.680;2023-09-08T13:49:25;5.00;;;3.10;;
70049;SDS011;57391;51.306;22.680;2023-09-08T13:51:53;5.90;;;3.10;;
70049;SDS011;57391;51.306;22.680;2023-09-08T13:54:21;7.20;;;3.40;;
70049;SDS011;57391;51.306;22.680;2023-09-08T13:57:01;6.50;;;3.00;;
70049;SDS011;57391;51.306;22.680;2023-09-08T13:59:30;6.90;;;3.10;;
70049;SDS011;57391;51.306;22.680;2023-09-08T14:01:57;6.10;;;3.00;;
70049;SDS011;57391;51.306;22.680;2023-09-08T14:04:25;5.90;;;3.30;;
70049;SDS011;57391;51.306;22.680;2023-09-08T14:06:52;6.10;;;3.20;;
70049;SDS011;57391;51.306;22.680;2023-09-08T14:09:19;6.70;;;3.60;;
70049;SDS011;57391;51.306;22.680;2023-09-08T14:11:46;5.70;;;3.10;;
70049;SDS011;57391;51.306;22.680;2023-09-08T14:14:13;6.80;;;3.30;;
70049;SDS011;57391;51.306;22.680;2023-09-08T14:16:40;6.30;;;3.40;;
70049;SDS011;57391;51.306;22.680;2023-09-08T14:19:07;7.00;;;3.20;;
70049;SDS011;57391;51.306;22.680;2023-09-08T14:21:34;4.90;;;3.10;;
70049;SDS011;57391;51.306;22.680;2023-09-08T14:24:03;5.10;;;3.10;;
70049;SDS011;57391;51.306;22.680;2023-09-08T14:26:30;5.40;;;3.10;;
70049;SDS011;57391;51.306;22.680;2023-09-08T14:28:57;5.70;;;3.00;;
70049;SDS011;57391;51.306;22.680;2023-09-08T14:31:23;5.40;;;3.20;;
70049;SDS011;57391;51.306;22.680;2023-09-08T14:33:50;5.50;;;3.20;;
70049;SDS011;57391;51.306;22.680;2023-09-08T14:36:18;5.80;;;3.20;;
70049;SDS011;57391;51.306;22.680;2023-09-08T14:38:45;4.70;;;2.70;;
70049;SDS011;57391;51.306;22.680;2023-09-08T14:41:12;7.30;;;3.20;;
70049;SDS011;57391;51.306;22.680;2023-09-08T14:43:40;6.20;;;3.00;;
70049;SDS011;57391;51.306;22.680;2023-09-08T14:46:07;6.40;;;3.10;;